createdAt,value
2018-11-06T00:01:28.254Z,111.17
2018-11-06T00:04:02.825Z,113.13
2018-11-06T00:06:32.007Z,109.97
2018-11-06T00:09:00.675Z,107.37
2018-11-06T00:11:29.273Z,97.10
2018-11-06T00:13:57.882Z,107.30
2018-11-06T00:16:26.520Z,109.53
2018-11-06T00:19:00.343Z,101.53
2018-11-06T00:21:29.000Z,115.53
2018-11-06T00:23:57.636Z,115.20
2018-11-06T00:26:26.281Z,106.37
2018-11-06T00:28:54.963Z,120.47
2018-11-06T00:31:23.563Z,110.27
2018-11-06T00:33:52.197Z,110.90
2018-11-06T00:36:20.798Z,122.10
2018-11-06T00:38:49.445Z,120.03
2018-11-06T00:41:18.179Z,110.67
2018-11-06T00:43:46.905Z,108.03
2018-11-06T00:46:15.547Z,113.43
2018-11-06T00:48:44.289Z,109.67
2018-11-06T00:51:12.974Z,112.27
2018-11-06T00:53:41.689Z,116.87
2018-11-06T00:56:10.323Z,117.07
2018-11-06T00:58:39.378Z,109.57
2018-11-06T01:01:08.102Z,122.40
2018-11-06T01:04:09.868Z,117.90
2018-11-06T01:06:38.825Z,113.60
2018-11-06T01:09:10.349Z,115.73
2018-11-06T01:11:39.043Z,119.93
2018-11-06T01:14:07.964Z,117.63
2018-11-06T01:16:36.637Z,124.03
2018-11-06T01:19:05.484Z,111.77
2018-11-06T01:21:34.110Z,125.47
2018-11-06T01:24:02.790Z,112.20
2018-11-06T01:26:31.781Z,125.90
2018-11-06T01:29:00.405Z,122.43
2018-11-06T01:31:29.050Z,126.97
2018-11-06T01:33:57.678Z,120.50
2018-11-06T01:36:26.245Z,116.07
2018-11-06T01:38:54.954Z,117.33
2018-11-06T01:41:23.698Z,109.43
2018-11-06T01:43:52.300Z,113.10
2018-11-06T01:46:20.914Z,107.23
2018-11-06T01:48:49.553Z,125.80
2018-11-06T01:51:18.256Z,112.57
2018-11-06T01:53:47.783Z,109.47
2018-11-06T01:56:16.418Z,123.83
2018-11-06T01:58:45.024Z,116.60
2018-11-06T02:01:13.688Z,110.03
2018-11-06T02:03:42.374Z,109.57
2018-11-06T02:06:10.993Z,126.80
2018-11-06T02:08:39.616Z,123.17
2018-11-06T02:11:08.230Z,126.97
2018-11-06T02:13:36.820Z,125.77
2018-11-06T02:16:05.778Z,124.50
2018-11-06T02:18:34.399Z,110.37
2018-11-06T02:21:03.133Z,128.93
2018-11-06T02:23:31.789Z,122.77
2018-11-06T02:26:00.379Z,115.97
2018-11-06T02:28:28.973Z,115.67
2018-11-06T02:30:57.581Z,114.73
2018-11-06T02:33:26.181Z,118.03
2018-11-06T02:35:54.830Z,117.57
2018-11-06T02:38:23.497Z,116.83
2018-11-06T02:40:52.105Z,110.20
2018-11-06T02:43:20.685Z,117.37
2018-11-06T02:45:49.313Z,133.67
2018-11-06T02:48:17.895Z,124.67
2018-11-06T02:50:46.528Z,125.73
2018-11-06T02:53:15.179Z,125.27
2018-11-06T02:55:43.915Z,131.30
2018-11-06T02:58:12.501Z,117.77
2018-11-06T03:00:41.207Z,114.13
2018-11-06T03:03:09.835Z,124.40
2018-11-06T03:05:38.451Z,123.33
2018-11-06T03:08:07.058Z,127.37
2018-11-06T03:10:35.656Z,122.23
2018-11-06T03:13:04.249Z,125.40
2018-11-06T03:15:32.903Z,121.23
2018-11-06T03:18:01.497Z,116.57
2018-11-06T03:20:30.154Z,124.13
2018-11-06T03:22:58.769Z,126.67
2018-11-06T03:25:27.399Z,123.80
2018-11-06T03:27:56.040Z,111.40
2018-11-06T03:30:24.651Z,131.17
2018-11-06T03:32:53.248Z,121.13
2018-11-06T03:35:21.902Z,118.20
2018-11-06T03:37:50.541Z,120.07
2018-11-06T03:40:19.107Z,124.47
2018-11-06T03:42:47.775Z,127.57
2018-11-06T03:45:16.378Z,130.30
2018-11-06T03:47:44.965Z,122.23
2018-11-06T03:50:13.900Z,126.10
2018-11-06T03:52:42.569Z,117.30
2018-11-06T03:55:11.322Z,122.50
2018-11-06T03:57:39.966Z,136.30
2018-11-06T04:00:11.013Z,136.73
2018-11-06T04:02:39.893Z,119.70
2018-11-06T04:05:08.797Z,123.97
2018-11-06T04:07:37.652Z,118.03
2018-11-06T04:10:07.363Z,127.10
2018-11-06T04:12:36.002Z,119.43
2018-11-06T04:15:04.660Z,129.20
2018-11-06T04:17:33.251Z,133.43
2018-11-06T04:20:01.862Z,121.23
2018-11-06T04:22:30.478Z,122.37
2018-11-06T04:24:59.129Z,117.40
2018-11-06T04:27:27.762Z,116.67
2018-11-06T04:29:56.378Z,118.93
2018-11-06T04:32:24.946Z,113.40
2018-11-06T04:34:53.620Z,117.80
2018-11-06T04:37:22.274Z,123.83
2018-11-06T04:39:50.949Z,112.60
2018-11-06T04:42:19.566Z,120.60
2018-11-06T04:44:48.214Z,120.57
2018-11-06T04:47:17.029Z,114.13
2018-11-06T04:49:45.676Z,138.40
2018-11-06T04:52:14.431Z,123.17
2018-11-06T04:54:43.035Z,132.23
2018-11-06T04:57:11.798Z,111.33
2018-11-06T04:59:40.410Z,121.77
2018-11-06T05:02:09.105Z,120.43
2018-11-06T05:04:37.731Z,132.77
2018-11-06T05:07:06.487Z,128.20
2018-11-06T05:09:35.130Z,125.80
2018-11-06T05:12:03.726Z,133.20
2018-11-06T05:14:33.358Z,125.40
2018-11-06T05:17:02.009Z,132.50
2018-11-06T05:19:30.675Z,126.50
2018-11-06T05:21:59.388Z,137.07
2018-11-06T05:24:28.020Z,140.23
2018-11-06T05:26:56.682Z,130.20
2018-11-06T05:29:25.308Z,132.37
2018-11-06T05:31:53.973Z,137.57
2018-11-06T05:34:22.573Z,144.90
2018-11-06T05:36:51.226Z,140.97
2018-11-06T05:39:19.858Z,147.00
2018-11-06T05:41:48.488Z,127.43
2018-11-06T05:44:17.212Z,148.33
2018-11-06T05:46:45.861Z,125.53
2018-11-06T05:49:14.550Z,136.20
2018-11-06T05:51:43.181Z,133.37
2018-11-06T05:54:11.861Z,143.50
2018-11-06T05:56:40.479Z,146.47
2018-11-06T05:59:09.312Z,159.83
2018-11-06T06:01:38.190Z,153.17
2018-11-06T06:04:07.221Z,142.63
2018-11-06T06:06:35.882Z,150.80
2018-11-06T06:09:06.396Z,149.60
2018-11-06T06:11:35.590Z,144.83
2018-11-06T06:14:04.335Z,152.90
2018-11-06T06:16:33.048Z,145.47
2018-11-06T06:19:01.662Z,159.93
2018-11-06T06:21:30.324Z,147.07
2018-11-06T06:23:58.983Z,157.10
2018-11-06T06:26:27.591Z,137.80
2018-11-06T06:28:56.277Z,154.33
2018-11-06T06:31:24.864Z,144.57
2018-11-06T06:33:53.501Z,141.90
2018-11-06T06:36:22.266Z,151.57
2018-11-06T06:38:50.968Z,139.40
2018-11-06T06:41:19.558Z,147.97
2018-11-06T06:43:48.269Z,148.50
2018-11-06T06:46:16.984Z,146.40
2018-11-06T06:48:45.655Z,144.43
2018-11-06T06:51:14.649Z,137.00
2018-11-06T06:53:43.305Z,134.23
2018-11-06T06:56:11.997Z,136.63
2018-11-06T06:58:40.684Z,128.93
2018-11-06T07:01:09.425Z,146.47
2018-11-06T07:03:38.091Z,120.90
2018-11-06T07:06:06.822Z,143.60
2018-11-06T07:08:35.472Z,127.10
2018-11-06T07:11:04.282Z,122.93
2018-11-06T07:13:32.984Z,117.27
2018-11-06T07:16:01.669Z,118.97
2018-11-06T07:18:30.467Z,114.50
2018-11-06T07:20:59.238Z,120.73
2018-11-06T07:23:27.991Z,111.40
2018-11-06T07:25:57.086Z,119.67
2018-11-06T07:28:25.769Z,107.60
2018-11-06T07:30:54.485Z,107.70
2018-11-06T07:33:23.153Z,110.27
2018-11-06T07:35:52.182Z,107.00
2018-11-06T07:38:20.947Z,106.73
2018-11-06T07:40:49.589Z,102.37
2018-11-06T07:43:18.835Z,113.83
2018-11-06T07:45:47.536Z,110.63
2018-11-06T07:48:16.218Z,113.60
2018-11-06T07:50:45.036Z,103.07
2018-11-06T07:53:13.698Z,99.30
2018-11-06T07:55:42.461Z,109.23
2018-11-06T07:58:11.591Z,102.27
2018-11-06T08:00:40.361Z,101.57
2018-11-06T08:03:09.143Z,98.47
2018-11-06T08:05:38.027Z,93.90
2018-11-06T08:08:06.827Z,101.33
2018-11-06T08:10:35.481Z,99.23
2018-11-06T08:13:04.178Z,99.13
2018-11-06T08:15:32.962Z,97.53
2018-11-06T08:18:01.648Z,99.60
2018-11-06T08:20:30.392Z,101.73
2018-11-06T08:22:59.045Z,106.80
2018-11-06T08:25:27.686Z,97.17
2018-11-06T08:27:56.627Z,95.13
2018-11-06T08:30:25.244Z,100.23
2018-11-06T08:32:55.294Z,91.27
2018-11-06T08:35:24.038Z,93.33
2018-11-06T08:37:53.172Z,93.83
2018-11-06T08:40:21.895Z,100.97
2018-11-06T08:42:50.602Z,97.70
2018-11-06T08:45:19.292Z,97.90
2018-11-06T08:47:48.048Z,87.03
2018-11-06T08:50:18.114Z,92.73
2018-11-06T08:52:46.762Z,85.70
2018-11-06T08:55:16.435Z,100.87
2018-11-06T08:57:45.490Z,106.03
2018-11-06T09:00:16.412Z,118.60
2018-11-06T09:02:46.375Z,92.10
2018-11-06T09:05:15.898Z,103.00
2018-11-06T09:07:44.831Z,93.83
2018-11-06T09:10:14.310Z,87.33
2018-11-06T09:12:43.034Z,94.67
2018-11-06T09:15:13.405Z,90.17
2018-11-06T09:17:42.136Z,99.60
2018-11-06T09:20:12.532Z,105.10
2018-11-06T09:22:41.415Z,89.60
2018-11-06T09:25:11.745Z,95.63
2018-11-06T09:27:40.916Z,92.97
2018-11-06T09:30:12.075Z,90.27
2018-11-06T09:32:40.815Z,98.07
2018-11-06T09:35:10.399Z,94.53
2018-11-06T09:37:39.374Z,83.87
2018-11-06T09:40:09.682Z,100.13
2018-11-06T09:42:38.404Z,96.67
2018-11-06T09:45:07.684Z,94.97
2018-11-06T09:47:36.471Z,103.23
2018-11-06T09:50:06.554Z,91.23
2018-11-06T09:52:35.174Z,93.20
2018-11-06T09:55:03.782Z,97.43
2018-11-06T09:57:32.510Z,90.27
2018-11-06T10:00:01.290Z,90.37
2018-11-06T10:02:30.150Z,82.73
2018-11-06T10:04:58.850Z,86.20
2018-11-06T10:07:27.785Z,83.97
2018-11-06T10:09:56.318Z,86.40
2018-11-06T10:12:24.993Z,95.13
2018-11-06T10:14:53.618Z,86.50
2018-11-06T10:17:22.247Z,84.43
2018-11-06T10:19:50.886Z,79.50
2018-11-06T10:22:19.577Z,82.10
2018-11-06T10:24:48.188Z,82.17
2018-11-06T10:27:16.815Z,84.33
2018-11-06T10:29:45.502Z,90.07
2018-11-06T10:32:14.426Z,89.67
2018-11-06T10:34:43.054Z,83.90
2018-11-06T10:37:11.692Z,79.50
2018-11-06T10:39:40.352Z,83.20
2018-11-06T10:42:09.451Z,76.90
2018-11-06T10:44:38.095Z,84.53
2018-11-06T10:47:06.677Z,86.97
2018-11-06T10:49:35.290Z,79.87
2018-11-06T10:52:03.971Z,84.80
2018-11-06T10:54:32.698Z,92.47
2018-11-06T10:57:01.345Z,83.53
2018-11-06T10:59:29.997Z,87.13
2018-11-06T11:02:03.875Z,78.60
2018-11-06T11:04:32.788Z,80.20
2018-11-06T11:07:01.442Z,71.50
2018-11-06T11:09:30.064Z,72.00
2018-11-06T11:11:58.753Z,77.93
2018-11-06T11:14:27.375Z,74.70
2018-11-06T11:16:55.973Z,73.00
2018-11-06T11:19:24.642Z,68.67
2018-11-06T11:21:53.221Z,82.40
2018-11-06T11:24:21.897Z,78.00
2018-11-06T11:26:50.929Z,67.27
2018-11-06T11:29:19.557Z,77.07
2018-11-06T11:31:48.154Z,79.93
2018-11-06T11:34:17.162Z,74.30
2018-11-06T11:36:45.782Z,72.67
2018-11-06T11:39:14.415Z,65.80
2018-11-06T11:41:43.099Z,73.63
2018-11-06T11:44:11.953Z,77.73
2018-11-06T11:46:40.710Z,76.50
2018-11-06T11:49:09.940Z,75.57
2018-11-06T11:51:38.735Z,69.00
2018-11-06T11:54:07.438Z,72.77
2018-11-06T11:56:36.188Z,74.33
2018-11-06T11:59:04.878Z,78.97
2018-11-06T12:01:33.593Z,71.07
2018-11-06T12:04:02.231Z,74.73
2018-11-06T12:06:30.946Z,69.03
2018-11-06T12:08:59.642Z,78.80
2018-11-06T12:11:28.274Z,75.43
2018-11-06T12:13:57.011Z,80.73
2018-11-06T12:16:25.681Z,68.73
2018-11-06T12:18:54.322Z,71.63
2018-11-06T12:21:22.982Z,70.37
2018-11-06T12:23:51.763Z,68.43
2018-11-06T12:26:20.409Z,69.70
2018-11-06T12:28:49.017Z,64.70
2018-11-06T12:31:17.742Z,75.40
2018-11-06T12:33:46.332Z,74.20
2018-11-06T12:36:15.039Z,65.10
2018-11-06T12:38:43.922Z,63.53
2018-11-06T12:41:13.250Z,65.20
2018-11-06T12:43:41.983Z,68.63
2018-11-06T12:46:10.654Z,62.10
2018-11-06T12:48:39.995Z,59.73
2018-11-06T12:51:08.877Z,70.77
2018-11-06T12:53:37.486Z,66.73
2018-11-06T12:56:06.418Z,65.57
2018-11-06T12:58:35.237Z,64.33
2018-11-06T13:01:03.934Z,67.33
2018-11-06T13:03:32.676Z,65.43
2018-11-06T13:06:02.571Z,60.57
2018-11-06T13:08:31.403Z,64.70
2018-11-06T13:11:00.218Z,63.27
2018-11-06T13:13:29.229Z,73.57
2018-11-06T13:15:58.412Z,61.73
2018-11-06T13:18:27.150Z,59.77
2018-11-06T13:20:55.820Z,61.03
2018-11-06T13:23:24.464Z,59.03
2018-11-06T13:25:53.101Z,60.77
2018-11-06T13:28:21.830Z,61.87
2018-11-06T13:30:50.564Z,65.03
2018-11-06T13:33:19.168Z,62.27
2018-11-06T13:35:47.836Z,58.87
2018-11-06T13:38:16.489Z,59.20
2018-11-06T13:40:45.117Z,54.03
2018-11-06T13:43:13.791Z,56.30
2018-11-06T13:45:42.554Z,53.03
2018-11-06T13:50:44.930Z,52.97
2018-11-06T13:53:13.547Z,54.83
2018-11-06T13:55:42.159Z,56.40
2018-11-06T13:58:10.795Z,57.87
2018-11-06T14:00:39.473Z,55.97
2018-11-06T14:03:08.368Z,61.40
2018-11-06T14:05:37.195Z,54.13
2018-11-06T14:08:06.262Z,61.83
2018-11-06T14:10:34.975Z,49.63
2018-11-06T14:13:03.622Z,63.20
2018-11-06T14:15:32.318Z,54.60
2018-11-06T14:18:01.335Z,61.30
2018-11-06T14:20:30.380Z,52.77
2018-11-06T14:22:59.019Z,55.30
2018-11-06T14:25:30.664Z,53.77
2018-11-06T14:27:59.351Z,56.63
2018-11-06T14:30:28.055Z,52.83
2018-11-06T14:32:56.809Z,48.97
2018-11-06T14:35:25.789Z,49.03
2018-11-06T14:37:54.535Z,49.13
2018-11-06T14:40:23.497Z,48.40
2018-11-06T14:42:52.239Z,57.07
2018-11-06T14:45:20.832Z,53.73
2018-11-06T14:47:49.441Z,47.80
2018-11-06T14:50:18.099Z,64.80
2018-11-06T14:52:46.684Z,55.20
2018-11-06T14:55:16.051Z,57.40
2018-11-06T14:57:44.690Z,50.60
2018-11-06T15:07:15.894Z,54.07
2018-11-06T15:09:44.633Z,58.73
2018-11-06T15:12:13.344Z,48.97
2018-11-06T15:14:42.313Z,46.50
2018-11-06T15:17:10.962Z,46.93
2018-11-06T15:19:39.648Z,48.43
2018-11-06T15:22:08.293Z,52.13
2018-11-06T15:24:36.915Z,61.80
2018-11-06T15:27:05.701Z,50.30
2018-11-06T15:29:34.370Z,47.20
2018-11-06T15:32:02.967Z,54.90
2018-11-06T15:34:31.603Z,60.60
2018-11-06T15:37:00.230Z,46.53
2018-11-06T15:39:28.887Z,52.40
2018-11-06T15:41:57.623Z,52.60
2018-11-06T15:44:26.129Z,48.43
2018-11-06T15:46:54.764Z,50.10
2018-11-06T15:49:23.371Z,56.00
2018-11-06T15:51:51.982Z,56.37
2018-11-06T15:54:20.574Z,49.80
2018-11-06T15:56:49.200Z,54.03
2018-11-06T15:59:17.815Z,53.10
2018-11-06T16:01:46.521Z,50.73
2018-11-06T16:04:15.170Z,48.27
2018-11-06T16:06:43.853Z,50.20
2018-11-06T16:09:12.468Z,61.30
2018-11-06T16:11:41.150Z,48.27
2018-11-06T16:14:09.788Z,47.23
2018-11-06T16:16:38.467Z,54.73
2018-11-06T16:19:07.612Z,48.87
2018-11-06T16:21:36.269Z,39.57
2018-11-06T16:24:04.984Z,51.03
2018-11-06T16:26:33.596Z,43.20
2018-11-06T16:29:02.225Z,48.23
2018-11-06T16:31:30.861Z,46.67
2018-11-06T16:33:59.493Z,51.67
2018-11-06T16:36:28.107Z,42.83
2018-11-06T16:38:56.817Z,50.50
2018-11-06T16:41:25.537Z,44.93
2018-11-06T16:43:54.154Z,46.53
2018-11-06T16:46:22.802Z,42.47
2018-11-06T16:48:51.429Z,43.37
2018-11-06T16:51:20.090Z,49.83
2018-11-06T16:53:48.746Z,51.90
2018-11-06T16:56:17.406Z,43.47
2018-11-06T16:58:46.028Z,55.60
2018-11-06T17:01:14.931Z,44.57
2018-11-06T17:03:43.358Z,46.30
2018-11-06T17:06:23.022Z,45.43
2018-11-06T17:08:51.693Z,46.10
2018-11-06T17:11:20.398Z,44.77
2018-11-06T17:13:49.042Z,54.13
2018-11-06T17:16:23.002Z,46.90
2018-11-06T17:18:52.359Z,51.20
2018-11-06T17:21:21.052Z,51.13
2018-11-06T17:23:49.727Z,45.77
2018-11-06T17:26:18.402Z,47.83
2018-11-06T17:28:47.130Z,45.53
2018-11-06T17:31:15.795Z,48.50
2018-11-06T17:33:44.622Z,48.37
2018-11-06T17:36:13.328Z,51.80
2018-11-06T17:38:42.038Z,50.60
2018-11-06T17:41:10.778Z,53.10
2018-11-06T17:43:39.557Z,50.90
2018-11-06T17:46:08.334Z,49.90
2018-11-06T17:48:37.128Z,51.30
2018-11-06T17:51:05.991Z,53.03
2018-11-06T17:53:34.722Z,55.10
2018-11-06T17:56:03.449Z,54.40
2018-11-06T17:58:32.228Z,59.93
2018-11-06T18:01:01.077Z,56.00
2018-11-06T18:03:29.946Z,50.43
2018-11-06T18:05:58.839Z,55.27
2018-11-06T18:08:27.654Z,58.00
2018-11-06T18:10:56.501Z,55.80
2018-11-06T18:13:25.838Z,50.50
2018-11-06T18:15:54.653Z,54.73
2018-11-06T18:18:23.386Z,59.13
2018-11-06T18:20:52.066Z,53.87
2018-11-06T18:23:20.750Z,55.23
2018-11-06T18:25:49.616Z,55.13
2018-11-06T18:28:18.157Z,55.53
2018-11-06T18:30:46.964Z,54.53
2018-11-06T18:33:15.680Z,51.17
2018-11-06T18:35:44.449Z,55.50
2018-11-06T18:38:13.250Z,46.87
2018-11-06T18:40:42.043Z,49.07
2018-11-06T18:43:10.740Z,48.67
2018-11-06T18:45:39.854Z,45.97
2018-11-06T18:48:08.697Z,49.63
2018-11-06T18:50:37.468Z,45.70
2018-11-06T18:53:06.595Z,44.57
2018-11-06T18:55:35.465Z,46.63
2018-11-06T18:58:04.269Z,42.80
2018-11-06T19:00:32.980Z,49.03
2018-11-06T19:03:01.715Z,43.83
2018-11-06T19:05:30.607Z,41.10
2018-11-06T19:08:00.582Z,49.70
2018-11-06T19:10:30.382Z,49.03
2018-11-06T19:12:59.696Z,41.27
2018-11-06T19:15:28.588Z,43.40
2018-11-06T19:17:57.808Z,48.73
2018-11-06T19:20:26.726Z,40.60
2018-11-06T19:22:55.394Z,44.37
2018-11-06T19:25:24.116Z,42.00
2018-11-06T19:27:52.822Z,40.90
2018-11-06T19:30:21.640Z,45.97
2018-11-06T19:32:50.757Z,45.57
2018-11-06T19:35:19.525Z,43.33
2018-11-06T19:40:22.376Z,41.80
2018-11-06T19:42:51.228Z,44.60
2018-11-06T19:45:20.181Z,44.27
2018-11-06T19:47:49.067Z,45.30
2018-11-06T19:50:19.233Z,43.20
2018-11-06T19:52:48.316Z,48.40
2018-11-06T19:55:18.017Z,41.97
2018-11-06T19:57:47.043Z,40.93
2018-11-06T20:00:22.026Z,46.43
2018-11-06T20:02:52.007Z,48.20
2018-11-06T20:05:21.097Z,42.57
2018-11-06T20:07:50.994Z,45.30
2018-11-06T20:10:21.389Z,49.80
2018-11-06T20:12:51.450Z,43.10
2018-11-06T20:15:20.323Z,44.93
2018-11-06T20:17:49.494Z,44.13
2018-11-06T20:20:20.149Z,47.47
2018-11-06T20:22:48.919Z,40.30
2018-11-06T20:25:24.109Z,50.10
2018-11-06T20:27:52.987Z,44.03
2018-11-06T20:30:23.360Z,45.13
2018-11-06T20:32:52.282Z,48.00
2018-11-06T20:35:21.029Z,41.23
2018-11-06T20:37:50.063Z,42.53
2018-11-06T20:40:22.397Z,55.07
2018-11-06T20:42:51.287Z,50.67
2018-11-06T20:45:20.516Z,47.23
2018-11-06T20:47:49.298Z,49.20
2018-11-06T20:50:21.063Z,50.40
2018-11-06T20:52:50.034Z,47.57
2018-11-06T20:55:19.248Z,44.53
2018-11-06T20:57:47.870Z,45.63
2018-11-06T21:00:21.523Z,49.03
2018-11-06T21:02:51.140Z,51.33
2018-11-06T21:05:19.929Z,47.57
2018-11-06T21:07:48.958Z,60.60
2018-11-06T21:10:19.160Z,47.23
2018-11-06T21:12:48.152Z,46.40
2018-11-06T21:15:17.017Z,57.13
2018-11-06T21:17:45.886Z,47.80
2018-11-06T21:20:15.313Z,60.37
2018-11-06T21:22:44.036Z,58.67
2018-11-06T21:25:13.162Z,45.40
2018-11-06T21:27:42.610Z,51.73
2018-11-06T21:30:15.976Z,45.77
2018-11-06T21:32:46.108Z,53.90
2018-11-06T21:35:14.963Z,48.00
2018-11-06T21:37:43.808Z,58.67
2018-11-06T21:40:15.408Z,51.20
2018-11-06T21:42:44.654Z,50.13
2018-11-06T21:45:14.029Z,49.30
2018-11-06T21:47:43.533Z,49.90
2018-11-06T21:50:13.158Z,52.87
2018-11-06T21:52:41.942Z,51.57
2018-11-06T21:55:11.862Z,52.83
2018-11-06T21:57:40.544Z,51.07
2018-11-06T22:00:13.285Z,52.87
2018-11-06T22:02:41.922Z,51.60
2018-11-06T22:05:13.522Z,52.43
2018-11-06T22:07:42.408Z,57.00
2018-11-06T22:10:12.459Z,53.67
2018-11-06T22:12:41.869Z,53.03
2018-11-06T22:15:11.610Z,57.30
2018-11-06T22:17:40.721Z,57.13
2018-11-06T22:20:11.062Z,50.83
2018-11-06T22:22:39.749Z,54.87
2018-11-06T22:25:08.574Z,64.27
2018-11-06T22:27:37.529Z,54.83
2018-11-06T22:30:08.214Z,58.07
2018-11-06T22:32:37.288Z,53.17
2018-11-06T22:35:07.556Z,53.73
2018-11-06T22:37:36.188Z,55.60
2018-11-06T22:40:04.998Z,59.30
2018-11-06T22:42:33.575Z,56.80
2018-11-06T22:45:02.226Z,53.50
2018-11-06T22:47:30.808Z,53.87
2018-11-06T22:49:59.461Z,58.00
2018-11-06T22:52:28.105Z,52.83
2018-11-06T22:54:56.756Z,53.83
2018-11-06T22:57:25.542Z,55.57
2018-11-06T22:59:54.204Z,61.57
2018-11-06T23:02:22.814Z,57.90
2018-11-06T23:04:57.216Z,60.23
2018-11-06T23:07:31.025Z,62.53
2018-11-06T23:09:59.655Z,61.27
2018-11-06T23:12:28.265Z,53.70
2018-11-06T23:14:56.907Z,56.80
2018-11-06T23:17:25.562Z,53.07
2018-11-06T23:19:54.170Z,55.80
2018-11-06T23:22:22.842Z,52.60
2018-11-06T23:24:51.534Z,61.23
2018-11-06T23:27:20.127Z,64.77
2018-11-06T23:29:48.769Z,58.07
2018-11-06T23:32:17.414Z,59.67
2018-11-06T23:34:46.025Z,50.27
2018-11-06T23:37:14.612Z,56.20
2018-11-06T23:39:43.234Z,55.20
2018-11-06T23:42:11.877Z,59.37
2018-11-06T23:44:40.496Z,56.70
2018-11-06T23:47:09.104Z,55.40
2018-11-06T23:49:37.752Z,63.17
2018-11-06T23:52:06.365Z,56.67
2018-11-06T23:54:34.986Z,62.53
2018-11-06T23:57:03.592Z,65.70
2018-11-06T23:59:32.245Z,55.93
